METAR AND TAF INFORMATION
METAR FOR EHGR
ADDS - METARS form results

(0931 UTC 25 January 2021)
Data provider http://aviationweather.gov/metar/data/
 
METAR text: EHGR 250925Z AUTO 34003KT 280V030 6000 BR NCD 01/M00 Q1004 WHT NOSIG
Conditions at: EHGR (GILZE-RIJEN RNLA, NL) observed 0925 UTC 25 January 2021
Temperature: 1.0°C (34°F)
Dewpoint: 0.0°C (32°F) [RH = 93%]
Pressure (altimeter): 29.65 inches Hg (1004.0 mb)
Winds: from the NNW (340 degrees) at 3 MPH (3 knots; 1.5 m/s)
Visibility: 4 miles ( 6 km)
Ceiling: at least 12,000 feet AGL
Clouds: sky clear below 12,000 feet AGL
Weather: BR  (mist)

METAR text: EHGR 250855Z AUTO 34004KT 290V030 5000 BR NCD 00/M00 Q1004 WHT BECMG 7000 NSW SCT030
Conditions at: EHGR (GILZE-RIJEN RNLA, NL) observed 0855 UTC 25 January 2021
Temperature: 0.0°C (32°F)
Dewpoint: 0.0°C (32°F) [RH = 100%]
Pressure (altimeter): 29.65 inches Hg (1004.0 mb)
Winds: from the NNW (340 degrees) at 5 MPH (4 knots; 2.1 m/s)
Visibility: 3 miles ( 5 km)
Ceiling: at least 12,000 feet AGL
Clouds: sky clear below 12,000 feet AGL
Weather: BR  (mist)

 AIRPORT MAP

 RUNWAY INFORMATION
Runway 02 Runway length 6549 ft Runway width 98 ft
Runway elevation 49 ft Runway displaced threshold 191 ft Runway heading 18
Runway 20 Runway length 6549 ft Runway width 98 ft
Runway elevation 40 ft Runway displaced threshold 192 ft Runway heading 198
Runway 10 Runway length 9118 ft Runway width 148 ft
Runway elevation 42 ft Runway displaced threshold 427 ft Runway heading 100
Runway 28 Runway length 9118 ft Runway width 148 ft
Runway elevation 38 ft Runway displaced threshold 331 ft Runway heading 280

 AIRPORT FREQUENCIES
Type ARR Name RAPCON WES Frequency 123.575 MHZ
Type GND Name GND Frequency 23.492 MHZ
Type TWR Name TWR Frequency 125.325 MHZ

 AIRPORT NEAR NAVIGATION AIDS
Type TACAN Name Gilze Rijen Frequency 116400 KHZ